Time;durP1;ratioP1;P1;durP2;ratioP2;P2;SDS_P1;SDS_P2;PMS_P1;PMS_P2;Temp;Humidity;BMP_temperature;BMP_pressure;BME280_temperature;BME280_humidity;BME280_pressure;Samples;Min_cycle;Max_cycle;Signal;HPM_P1;HPM_P2
2024/01/18 00:04:44;;;;;;;8.55;4.32;;;4.60;99.90;;;;;;10307643;28;20406;-87
2024/01/18 00:09:45;;;;;;;7.93;4.95;;;4.60;99.90;;;;;;10307424;28;20022;-87
2024/01/18 00:14:45;;;;;;;9.82;4.53;;;4.90;99.90;;;;;;10297999;28;20155;-87
2024/01/18 00:19:46;;;;;;;9.32;4.30;;;4.60;99.90;;;;;;10308776;28;20018;-85
2024/01/18 00:24:47;;;;;;;7.55;3.75;;;4.60;99.90;;;;;;10307584;28;20088;-84
2024/01/18 00:29:47;;;;;;;8.75;4.28;;;4.50;99.90;;;;;;10298612;28;20038;-87
2024/01/18 00:34:48;;;;;;;8.25;4.13;;;4.60;99.90;;;;;;10292264;28;20537;-87
2024/01/18 00:39:48;;;;;;;5.38;3.80;;;4.50;99.90;;;;;;10314722;28;20038;-86
2024/01/18 00:44:49;;;;;;;8.30;4.53;;;4.50;99.90;;;;;;10300838;28;20481;-88
2024/01/18 00:49:50;;;;;;;8.35;4.32;;;4.60;99.90;;;;;;10306174;28;20416;-87
2024/01/18 00:54:50;;;;;;;6.82;3.58;;;4.50;99.90;;;;;;10307123;28;20572;-85
2024/01/18 00:59:51;;;;;;;6.22;3.47;;;4.50;99.90;;;;;;10309558;28;20874;-87
2024/01/18 01:04:53;;;;;;;7.57;3.80;;;4.50;99.90;;;;;;10306173;28;20041;-87
2024/01/18 01:09:53;;;;;;;6.35;3.65;;;4.60;99.90;;;;;;10314053;28;20069;-84
2024/01/18 01:14:54;;;;;;;5.57;3.78;;;4.50;99.90;;;;;;10312918;28;20125;-85
2024/01/18 01:19:54;;;;;;;7.00;3.88;;;4.50;99.90;;;;;;10309089;28;20034;-86
2024/01/18 01:24:55;;;;;;;7.32;3.50;;;4.50;99.90;;;;;;10310992;28;20391;-85
2024/01/18 01:29:56;;;;;;;6.55;3.78;;;4.50;99.90;;;;;;10309061;28;20037;-87
2024/01/18 01:34:56;;;;;;;5.82;3.38;;;4.50;99.90;;;;;;10318857;28;20034;-86
2024/01/18 01:39:57;;;;;;;7.40;3.10;;;4.50;99.90;;;;;;10307078;28;20018;-87
2024/01/18 01:44:57;;;;;;;7.20;3.28;;;4.50;99.90;;;;;;10316985;28;20034;-87
2024/01/18 01:49:59;;;;;;;5.82;2.83;;;4.50;99.90;;;;;;10317266;28;20490;-86
2024/01/18 01:55:01;;;;;;;5.75;3.13;;;4.50;99.90;;;;;;10316425;28;20117;-87
2024/01/18 02:00:03;;;;;;;6.13;2.90;;;4.50;99.90;;;;;;10319027;28;20068;-88
2024/01/18 02:05:04;;;;;;;5.97;2.75;;;4.50;99.90;;;;;;10313687;28;20485;-87
2024/01/18 02:10:06;;;;;;;6.88;3.22;;;4.50;99.90;;;;;;10309595;28;20307;-86
2024/01/18 02:15:08;;;;;;;5.80;2.90;;;4.50;99.90;;;;;;10310487;28;20106;-85
2024/01/18 02:20:10;;;;;;;5.05;3.03;;;4.50;99.90;;;;;;10309600;28;20085;-87
2024/01/18 02:25:25;;;;;;;5.60;2.75;;;4.50;99.90;;;;;;10307435;28;20330;-86
2024/01/18 02:30:26;;;;;;;5.63;2.58;;;4.50;99.90;;;;;;10313544;28;20402;-86
2024/01/18 02:35:26;;;;;;;3.85;2.55;;;4.40;99.90;;;;;;10305909;28;20058;-87
2024/01/18 02:40:27;;;;;;;4.68;2.33;;;4.40;99.90;;;;;;10313296;28;20030;-86
2024/01/18 02:45:29;;;;;;;3.05;1.75;;;4.40;99.90;;;;;;10316297;28;20026;-87
2024/01/18 02:50:29;;;;;;;4.65;2.55;;;4.40;99.90;;;;;;10307266;28;20288;-87
2024/01/18 02:55:30;;;;;;;3.97;2.13;;;4.40;99.90;;;;;;10310015;28;20477;-86
2024/01/18 03:00:31;;;;;;;4.20;2.25;;;4.40;99.90;;;;;;10301814;28;20430;-87
2024/01/18 03:05:33;;;;;;;5.15;2.10;;;4.40;99.90;;;;;;10304460;28;20406;-87
2024/01/18 03:10:34;;;;;;;3.72;1.83;;;4.40;99.90;;;;;;10312182;28;20030;-87
2024/01/18 03:15:34;;;;;;;3.92;2.28;;;4.40;99.90;;;;;;10315659;28;20026;-86
2024/01/18 03:20:35;;;;;;;3.55;1.90;;;4.40;99.90;;;;;;10308352;28;20410;-87
2024/01/18 03:25:35;;;;;;;5.05;2.03;;;4.40;99.90;;;;;;10304916;28;20023;-86
2024/01/18 03:30:36;;;;;;;3.63;1.80;;;4.30;99.90;;;;;;10308163;28;20026;-86
2024/01/18 03:35:37;;;;;;;3.38;2.15;;;4.30;99.90;;;;;;10304282;28;20033;-84
2024/01/18 03:40:38;;;;;;;2.45;1.75;;;4.30;99.90;;;;;;10312722;28;20014;-86
2024/01/18 03:45:38;;;;;;;3.28;1.75;;;4.30;99.90;;;;;;10307182;28;20121;-87
2024/01/18 03:50:39;;;;;;;2.30;1.80;;;4.30;99.90;;;;;;10306882;28;20482;-86
2024/01/18 03:55:40;;;;;;;1.80;1.55;;;5.20;99.90;;;;;;10297804;28;20494;-86
2024/01/18 04:00:41;;;;;;;2.78;1.50;;;4.30;99.90;;;;;;10315004;28;20022;-87
2024/01/18 04:05:41;;;;;;;3.60;1.55;;;4.80;99.90;;;;;;10289607;28;20097;-86
2024/01/18 04:10:42;;;;;;;2.60;1.52;;;4.30;99.90;;;;;;10304928;28;20117;-87
2024/01/18 04:15:42;;;;;;;2.33;1.50;;;4.30;99.90;;;;;;10307952;28;20030;-87
2024/01/18 04:20:43;;;;;;;2.22;1.50;;;4.20;99.90;;;;;;10309173;28;20122;-87
2024/01/18 04:25:44;;;;;;;2.75;1.40;;;4.30;99.90;;;;;;10293857;28;20033;-87
2024/01/18 04:30:45;;;;;;;1.67;1.27;;;4.20;99.90;;;;;;10303530;28;20054;-85
2024/01/18 04:35:45;;;;;;;2.25;1.40;;;4.30;99.90;;;;;;10312232;28;20027;-87
2024/01/18 04:40:46;;;;;;;1.73;1.33;;;4.20;99.90;;;;;;10316853;28;20076;-87
2024/01/18 04:45:47;;;;;;;1.65;1.17;;;4.20;99.90;;;;;;10307920;28;20088;-85
2024/01/18 04:50:47;;;;;;;2.28;1.20;;;4.20;99.90;;;;;;10311734;28;20041;-87
2024/01/18 04:55:48;;;;;;;1.67;1.10;;;4.20;99.90;;;;;;10304192;28;20165;-86
2024/01/18 05:00:48;;;;;;;1.83;1.27;;;4.20;99.90;;;;;;10319171;28;20018;-87
2024/01/18 05:05:49;;;;;;;1.38;1.00;;;4.20;99.90;;;;;;10302141;28;20035;-86
2024/01/18 05:10:50;;;;;;;1.73;1.13;;;4.20;99.90;;;;;;10311101;28;20031;-87
2024/01/18 05:15:51;;;;;;;2.53;1.45;;;4.20;99.90;;;;;;10319537;28;20125;-86
2024/01/18 05:20:51;;;;;;;1.90;0.98;;;4.20;99.90;;;;;;10314400;28;20026;-87
2024/01/18 05:25:52;;;;;;;3.03;1.30;;;4.20;99.90;;;;;;10312802;28;20084;-86
2024/01/18 05:30:52;;;;;;;1.88;1.02;;;4.20;99.90;;;;;;10310686;28;20026;-86
2024/01/18 05:35:59;;;;;;;2.33;1.10;;;4.10;99.90;;;;;;10315357;28;20172;-87
2024/01/18 05:41:00;;;;;;;2.13;1.10;;;4.20;99.90;;;;;;10318068;28;20027;-87
2024/01/18 05:46:02;;;;;;;2.55;1.30;;;5.60;99.90;;;;;;10309028;28;20073;-86
2024/01/18 05:51:03;;;;;;;2.33;1.02;;;4.10;99.90;;;;;;10310012;28;20113;-87
2024/01/18 05:56:04;;;;;;;1.52;0.90;;;4.10;99.90;;;;;;10315851;28;20100;-87
2024/01/18 06:01:05;;;;;;;1.50;1.00;;;4.10;99.90;;;;;;10313450;28;20050;-87
2024/01/18 06:06:06;;;;;;;1.60;1.10;;;4.10;99.90;;;;;;10313344;28;20030;-86
2024/01/18 06:11:07;;;;;;;2.63;1.10;;;4.10;99.90;;;;;;10312980;28;20494;-86
2024/01/18 06:16:11;;;;;;;2.15;1.00;;;4.10;99.90;;;;;;10307111;28;20207;-86
2024/01/18 06:21:12;;;;;;;2.78;1.10;;;4.10;99.90;;;;;;10308401;28;20029;-87
2024/01/18 06:26:12;;;;;;;2.35;1.27;;;4.10;99.90;;;;;;10307963;28;20045;-87
2024/01/18 06:31:14;;;;;;;0.90;0.80;;;4.10;99.90;;;;;;10315893;28;20385;-85
2024/01/18 06:36:14;;;;;;;2.35;1.00;;;4.10;99.90;;;;;;10309339;28;20088;-87
2024/01/18 06:41:15;;;;;;;2.20;1.00;;;4.10;99.90;;;;;;10313821;28;20101;-86
2024/01/18 06:46:17;;;;;;;1.52;0.90;;;3.70;99.90;;;;;;10311569;28;20030;-84
2024/01/18 06:51:17;;;;;;;0.80;0.70;;;4.10;99.90;;;;;;10310187;28;20415;-88
2024/01/18 06:56:18;;;;;;;3.03;1.05;;;4.10;99.90;;;;;;10307549;28;20030;-86
2024/01/18 07:01:19;;;;;;;1.60;0.73;;;5.10;99.90;;;;;;10307397;28;20581;-88
2024/01/18 07:06:19;;;;;;;0.80;0.68;;;4.10;99.90;;;;;;10302855;28;20482;-86
2024/01/18 07:11:20;;;;;;;2.15;1.05;;;4.20;99.90;;;;;;10308258;28;20117;-88
2024/01/18 07:16:20;;;;;;;1.48;0.50;;;4.30;99.90;;;;;;10309982;28;20023;-87
2024/01/18 07:21:21;;;;;;;2.33;0.75;;;4.50;99.90;;;;;;10313567;28;20049;-87
2024/01/18 07:26:22;;;;;;;2.15;0.85;;;4.40;99.90;;;;;;10311803;28;20043;-87
2024/01/18 07:31:22;;;;;;;2.53;1.02;;;4.30;99.90;;;;;;10304769;28;20618;-87
2024/01/18 07:36:23;;;;;;;2.28;0.75;;;4.30;99.90;;;;;;10309186;28;20422;-86
2024/01/18 07:41:24;;;;;;;1.30;0.80;;;4.20;99.90;;;;;;10306183;28;20027;-85
2024/01/18 07:46:24;;;;;;;2.35;0.90;;;4.20;99.90;;;;;;10298892;28;20023;-87
2024/01/18 07:51:25;;;;;;;1.23;0.82;;;4.20;99.90;;;;;;10308448;28;20030;-88
2024/01/18 07:56:28;;;;;;;2.53;0.70;;;4.20;99.90;;;;;;10309027;28;20037;-86
2024/01/18 08:01:28;;;;;;;1.05;0.65;;;4.10;99.90;;;;;;10308881;28;20430;-86
2024/01/18 08:06:29;;;;;;;3.63;0.80;;;4.10;99.90;;;;;;10308689;28;20037;-86
2024/01/18 08:11:30;;;;;;;1.17;0.80;;;4.10;99.90;;;;;;10286997;28;20067;-87
2024/01/18 08:16:31;;;;;;;0.93;0.63;;;4.10;99.90;;;;;;10321104;28;20490;-86
2024/01/18 08:21:31;;;;;;;2.83;0.63;;;4.10;99.90;;;;;;10314099;28;20026;-86
2024/01/18 08:26:32;;;;;;;2.35;0.85;;;4.10;99.90;;;;;;10313532;28;20042;-88
2024/01/18 08:31:33;;;;;;;1.58;0.68;;;4.10;99.90;;;;;;10310314;28;20030;-87
2024/01/18 08:36:36;;;;;;;1.67;0.70;;;4.10;99.90;;;;;;10317485;28;20018;-86
2024/01/18 08:41:36;;;;;;;1.13;0.63;;;4.10;99.90;;;;;;10317284;28;20022;-88
2024/01/18 08:46:39;;;;;;;0.88;0.60;;;4.80;99.90;;;;;;10315592;28;20720;-86
2024/01/18 08:51:39;;;;;;;1.63;1.00;;;4.10;99.90;;;;;;10309991;28;20019;-86
2024/01/18 08:56:40;;;;;;;1.20;0.68;;;4.10;99.90;;;;;;10315045;28;20426;-84
2024/01/18 09:01:41;;;;;;;3.08;0.90;;;4.10;99.90;;;;;;10320822;28;20034;-85
2024/01/18 09:06:44;;;;;;;2.22;0.70;;;4.10;99.90;;;;;;10314213;28;20308;-86
2024/01/18 09:11:45;;;;;;;0.95;0.60;;;4.20;99.90;;;;;;10303585;28;20023;-85
2024/01/18 09:16:46;;;;;;;1.17;0.50;;;4.20;99.90;;;;;;10314963;28;20031;-87
2024/01/18 09:21:46;;;;;;;1.23;0.50;;;4.20;99.90;;;;;;10312948;28;20019;-90
2024/01/18 09:26:50;;;;;;;0.70;0.70;;;5.00;99.90;;;;;;10310873;28;20039;-87
2024/01/18 09:31:51;;;;;;;1.00;0.50;;;4.20;99.90;;;;;;10312714;28;20508;-87
2024/01/18 09:36:51;;;;;;;2.88;1.13;;;4.30;99.90;;;;;;10313631;28;20331;-87
2024/01/18 09:41:53;;;;;;;1.23;0.50;;;4.30;99.80;;;;;;10317842;28;20415;-86
2024/01/18 09:46:54;;;;;;;1.58;0.70;;;4.40;99.80;;;;;;10310257;28;20065;-86
2024/01/18 09:51:57;;;;;;;1.33;0.77;;;4.40;99.70;;;;;;10307486;28;20026;-85
2024/01/18 09:57:00;;;;;;;2.65;1.27;;;4.40;99.70;;;;;;10319970;28;20161;-86
2024/01/18 10:02:01;;;;;;;1.25;0.52;;;4.40;99.70;;;;;;10311536;28;20121;-85
2024/01/18 10:07:02;;;;;;;1.58;0.50;;;4.50;99.70;;;;;;10310583;28;20034;-87
2024/01/18 10:12:03;;;;;;;1.63;0.52;;;4.60;99.70;;;;;;10314034;28;20034;-86
2024/01/18 10:17:03;;;;;;;1.30;0.70;;;4.70;99.60;;;;;;10315355;28;20450;-86
2024/01/18 10:22:05;;;;;;;0.50;0.50;;;4.80;99.50;;;;;;10314090;28;20109;-87
2024/01/18 10:27:06;;;;;;;1.02;0.40;;;4.90;99.50;;;;;;10308734;28;20054;-84
2024/01/18 10:32:09;;;;;;;1.55;0.70;;;5.00;99.40;;;;;;10316459;28;20109;-85
2024/01/18 10:37:16;;;;;;;1.63;0.65;;;5.90;99.50;;;;;;10314651;28;20030;-85
2024/01/18 10:42:17;;;;;;;2.00;0.77;;;5.20;99.30;;;;;;10307960;28;20445;-85
2024/01/18 10:47:18;;;;;;;1.35;0.63;;;5.30;99.30;;;;;;10306283;28;20159;-86
2024/01/18 10:52:22;;;;;;;2.60;0.93;;;5.30;99.20;;;;;;10316332;28;20193;-86
2024/01/18 10:57:23;;;;;;;2.47;0.90;;;5.40;99.20;;;;;;10313875;28;20018;-85
2024/01/18 11:02:24;;;;;;;1.90;0.70;;;5.40;99.30;;;;;;10304494;28;20507;-87
2024/01/18 11:07:25;;;;;;;2.83;0.50;;;5.30;99.60;;;;;;10307407;28;20113;-86
2024/01/18 11:12:26;;;;;;;1.65;0.60;;;5.30;99.40;;;;;;10305985;28;20035;-87
2024/01/18 11:17:27;;;;;;;0.98;0.52;;;5.40;99.40;;;;;;10300764;28;20169;-87
2024/01/18 11:22:28;;;;;;;1.10;0.52;;;5.40;99.50;;;;;;10301445;28;20270;-88
2024/01/18 11:27:36;;;;;;;2.70;0.75;;;5.40;99.40;;;;;;10311453;28;20486;-86
2024/01/18 11:32:38;;;;;;;0.68;0.50;;;5.50;99.50;;;;;;10299324;28;20494;-88
2024/01/18 11:37:39;;;;;;;5.43;1.80;;;5.60;99.50;;;;;;10304960;28;20053;-87
2024/01/18 11:42:41;;;;;;;4.50;1.77;;;5.70;99.30;;;;;;10302326;28;20037;-88
2024/01/18 11:47:41;;;;;;;4.68;1.60;;;5.60;99.20;;;;;;10309013;28;20034;-90
2024/01/18 11:52:44;;;;;;;3.60;1.50;;;5.70;99.30;;;;;;10297838;28;20470;-86
2024/01/18 11:57:46;;;;;;;4.25;1.20;;;5.70;99.30;;;;;;10309831;28;20037;-86
2024/01/18 12:02:46;;;;;;;5.15;1.35;;;5.70;99.30;;;;;;10309382;28;20045;-89
2024/01/18 12:07:47;;;;;;;4.53;1.23;;;7.00;99.60;;;;;;10307505;28;20033;-88
2024/01/18 12:12:49;;;;;;;3.20;1.20;;;5.70;99.30;;;;;;10306145;28;20428;-88
2024/01/18 12:17:55;;;;;;;5.55;1.40;;;5.70;99.20;;;;;;10307040;28;20426;-89
2024/01/18 12:22:55;;;;;;;3.80;1.58;;;5.60;99.40;;;;;;10306060;28;20027;-88
2024/01/18 12:27:56;;;;;;;6.10;1.30;;;5.60;99.50;;;;;;10306957;28;20034;-87
2024/01/18 12:32:57;;;;;;;4.80;1.20;;;5.60;99.50;;;;;;10309904;28;20030;-89
2024/01/18 12:38:02;;;;;;;7.18;1.30;;;5.60;99.50;;;;;;10301234;28;20080;-88
2024/01/18 12:43:04;;;;;;;2.65;0.90;;;6.50;99.80;;;;;;10313849;28;20240;-88
2024/01/18 12:48:05;;;;;;;4.20;1.15;;;5.70;99.50;;;;;;10304292;28;20026;-90
2024/01/18 12:53:07;;;;;;;2.92;1.08;;;5.70;99.50;;;;;;10307960;28;20019;-87
2024/01/18 12:58:12;;;;;;;3.08;0.98;;;6.10;99.60;;;;;;10304515;28;20058;-88
2024/01/18 13:03:15;;;;;;;1.95;0.90;;;5.60;99.60;;;;;;10312292;28;20098;-88
2024/01/18 13:08:16;;;;;;;2.60;0.75;;;5.70;99.70;;;;;;10312848;28;20033;-88
2024/01/18 13:13:17;;;;;;;2.45;1.00;;;5.70;99.70;;;;;;10311353;28;20545;-89
2024/01/18 13:18:18;;;;;;;2.75;1.05;;;5.70;99.60;;;;;;10314530;28;20057;-90
2024/01/18 13:23:20;;;;;;;4.05;0.88;;;5.70;99.70;;;;;;10295316;28;20129;-87
2024/01/18 13:28:21;;;;;;;2.80;0.63;;;5.80;99.80;;;;;;10312598;28;20050;-88
2024/01/18 13:33:21;;;;;;;4.43;1.05;;;5.70;99.70;;;;;;10315405;28;20045;-88
2024/01/18 13:38:22;;;;;;;1.23;0.80;;;5.70;99.70;;;;;;10308801;28;20019;-88
2024/01/18 13:43:23;;;;;;;4.72;1.17;;;5.70;99.70;;;;;;10315388;28;20031;-87
2024/01/18 13:48:23;;;;;;;2.15;1.08;;;5.60;99.70;;;;;;10316237;28;20490;-89
2024/01/18 13:53:25;;;;;;;5.07;0.80;;;5.60;99.80;;;;;;10311827;28;20532;-88
2024/01/18 13:58:25;;;;;;;1.77;0.77;;;5.60;99.90;;;;;;10312665;28;20026;-87
2024/01/18 14:03:27;;;;;;;1.85;0.70;;;5.60;99.90;;;;;;10308499;28;20737;-88
2024/01/18 14:08:27;;;;;;;2.28;0.77;;;6.50;99.90;;;;;;10311878;28;20144;-89
2024/01/18 14:13:28;;;;;;;1.10;0.68;;;5.50;99.90;;;;;;10304232;28;20446;-87
2024/01/18 14:18:28;;;;;;;1.10;0.73;;;5.50;99.90;;;;;;10316096;28;20057;-87
2024/01/18 14:23:29;;;;;;;1.67;0.63;;;5.50;99.90;;;;;;10310639;28;20089;-88
2024/01/18 14:28:30;;;;;;;1.00;0.60;;;5.60;99.90;;;;;;10315158;28;20026;-88
2024/01/18 14:33:30;;;;;;;3.05;0.63;;;5.50;99.90;;;;;;10307487;28;20037;-89
2024/01/18 14:38:31;;;;;;;0.50;0.40;;;5.50;99.90;;;;;;10314459;28;20034;-89
2024/01/18 14:43:32;;;;;;;3.03;0.60;;;5.60;99.90;;;;;;10312550;28;20026;-87
2024/01/18 14:48:32;;;;;;;2.00;0.55;;;5.60;99.90;;;;;;10312399;28;20026;-87
2024/01/18 14:53:33;;;;;;;1.98;0.65;;;5.50;99.90;;;;;;10314173;28;20384;-88
2024/01/18 14:58:34;;;;;;;4.35;0.93;;;5.50;99.90;;;;;;10306966;28;20487;-89
2024/01/18 15:03:34;;;;;;;2.42;0.60;;;5.50;99.90;;;;;;10306979;28;20060;-88
2024/01/18 15:08:36;;;;;;;0.90;0.60;;;5.50;99.90;;;;;;10309549;28;20121;-88
2024/01/18 15:13:36;;;;;;;1.67;0.68;;;5.40;99.90;;;;;;10307283;28;20030;-88
2024/01/18 15:18:37;;;;;;;2.35;0.47;;;5.40;99.90;;;;;;10307345;28;20026;-88
2024/01/18 15:23:38;;;;;;;1.63;0.52;;;5.40;99.90;;;;;;10309604;28;20073;-85
2024/01/18 15:28:38;;;;;;;1.95;0.50;;;5.40;99.90;;;;;;10289559;28;20027;-88
2024/01/18 15:33:40;;;;;;;0.70;0.60;;;5.40;99.90;;;;;;10304162;28;20154;-86
2024/01/18 15:38:41;;;;;;;1.90;0.60;;;5.40;99.90;;;;;;10311693;28;20030;-88
2024/01/18 15:43:42;;;;;;;2.40;0.68;;;5.30;99.90;;;;;;10304114;28;20450;-87
2024/01/18 15:48:45;;;;;;;1.17;0.50;;;5.30;99.90;;;;;;10311467;28;20474;-87
2024/01/18 15:53:46;;;;;;;1.05;0.43;;;5.30;99.90;;;;;;10306884;28;20106;-88
2024/01/18 15:58:47;;;;;;;2.83;0.88;;;5.30;99.90;;;;;;10304088;28;20035;-85
2024/01/18 16:03:48;;;;;;;1.23;0.60;;;5.30;99.90;;;;;;10306442;28;20035;-85
2024/01/18 16:08:49;;;;;;;1.45;0.57;;;5.30;99.90;;;;;;10312016;28;20391;-87
2024/01/18 16:13:50;;;;;;;1.02;0.93;;;5.30;99.90;;;;;;10308826;28;20096;-87
2024/01/18 16:18:50;;;;;;;2.00;0.60;;;5.30;99.90;;;;;;10310000;28;20027;-89
2024/01/18 16:23:54;;;;;;;1.40;0.70;;;5.30;99.90;;;;;;10314148;28;20030;-89
2024/01/18 16:28:56;;;;;;;2.47;1.00;;;5.20;99.90;;;;;;10308989;28;20434;-90
2024/01/18 16:33:57;;;;;;;4.10;1.40;;;5.50;99.90;;;;;;10302868;28;20041;-87
2024/01/18 16:38:58;;;;;;;3.00;1.40;;;5.00;99.90;;;;;;10315645;28;20034;-90
2024/01/18 16:43:59;;;;;;;7.93;2.17;;;4.90;99.90;;;;;;10315216;28;20037;-91
2024/01/18 16:49:02;;;;;;;3.90;1.95;;;4.90;99.90;;;;;;10310309;28;20026;-88
2024/01/18 16:54:03;;;;;;;8.32;2.88;;;4.80;99.90;;;;;;10311081;28;20042;-90
2024/01/18 16:59:04;;;;;;;6.63;3.15;;;4.80;99.90;;;;;;10314234;28;20038;-89
2024/01/18 17:04:08;;;;;;;6.25;2.78;;;4.70;99.90;;;;;;10319465;28;20502;-88
2024/01/18 17:09:08;;;;;;;8.32;2.92;;;4.80;99.90;;;;;;10312868;28;20033;-89
2024/01/18 17:14:09;;;;;;;9.20;3.33;;;4.90;99.90;;;;;;10311403;28;20529;-88
2024/01/18 17:19:09;;;;;;;9.32;3.20;;;4.90;99.90;;;;;;10312557;28;20034;-90
2024/01/18 17:24:10;;;;;;;8.68;3.05;;;4.90;99.90;;;;;;10311400;28;20529;-89
2024/01/18 17:29:11;;;;;;;7.45;2.80;;;4.90;99.90;;;;;;10313651;28;20030;-88
2024/01/18 17:34:18;;;;;;;7.45;2.92;;;4.90;99.90;;;;;;10314447;28;20041;-88
2024/01/18 17:39:18;;;;;;;7.70;2.97;;;4.90;99.90;;;;;;10308775;28;20148;-88
2024/01/18 17:44:21;;;;;;;8.73;3.30;;;5.00;99.90;;;;;;10310222;28;20041;-86
2024/01/18 17:49:21;;;;;;;7.00;3.00;;;5.00;99.90;;;;;;10313859;28;20523;-89
2024/01/18 17:54:22;;;;;;;7.47;3.10;;;4.90;99.90;;;;;;10309412;28;20033;-89
2024/01/18 17:59:24;;;;;;;6.75;2.83;;;4.90;99.90;;;;;;10308154;28;20015;-87
2024/01/18 18:04:24;;;;;;;8.57;2.85;;;4.80;99.90;;;;;;10305845;28;20458;-88
2024/01/18 18:09:25;;;;;;;6.30;2.53;;;4.90;99.90;;;;;;10305062;28;20033;-88
2024/01/18 18:14:29;;;;;;;3.90;2.13;;;4.90;99.90;;;;;;10308835;28;20019;-85
2024/01/18 18:19:30;;;;;;;8.77;2.88;;;5.10;99.90;;;;;;10310418;28;20463;-87
2024/01/18 18:24:31;;;;;;;6.35;1.90;;;5.20;99.90;;;;;;10315481;28;20117;-87
2024/01/18 18:29:31;;;;;;;5.20;2.00;;;5.20;99.90;;;;;;10316611;28;20022;-88
2024/01/18 18:34:32;;;;;;;4.80;2.63;;;6.00;99.90;;;;;;10309376;28;20107;-87
2024/01/18 18:39:33;;;;;;;5.03;2.63;;;5.10;99.90;;;;;;10314039;28;20448;-87
2024/01/18 18:44:34;;;;;;;5.93;2.33;;;5.00;99.90;;;;;;10314923;28;20042;-87
2024/01/18 18:49:35;;;;;;;4.30;2.17;;;5.00;99.90;;;;;;10315624;28;20500;-87
2024/01/18 18:54:35;;;;;;;5.40;2.17;;;5.00;99.90;;;;;;10307451;28;20037;-87
2024/01/18 18:59:36;;;;;;;6.20;1.95;;;4.90;99.90;;;;;;10308093;28;20027;-88
2024/01/18 19:04:36;;;;;;;3.20;1.98;;;4.90;99.90;;;;;;10298677;28;20042;-87
2024/01/18 19:09:40;;;;;;;4.25;1.77;;;4.90;99.90;;;;;;10315557;28;20026;-88
2024/01/18 19:14:41;;;;;;;3.30;1.85;;;6.10;99.90;;;;;;10313203;28;20461;-88
2024/01/18 19:19:42;;;;;;;2.85;1.65;;;4.80;99.90;;;;;;10310933;28;20133;-88
2024/01/18 19:24:43;;;;;;;4.25;1.77;;;4.80;99.90;;;;;;10316264;28;20463;-90
2024/01/18 19:29:45;;;;;;;3.58;1.63;;;4.80;99.90;;;;;;10310205;28;20033;-88
2024/01/18 19:34:45;;;;;;;4.32;1.33;;;4.80;99.90;;;;;;10297805;28;20089;-90
2024/01/18 19:39:47;;;;;;;4.07;1.77;;;4.80;99.90;;;;;;10310074;28;20053;-87
2024/01/18 19:44:48;;;;;;;3.42;1.48;;;6.00;99.90;;;;;;10301710;28;20031;-88
2024/01/18 19:49:48;;;;;;;5.60;1.58;;;4.80;99.90;;;;;;10313912;28;20065;-88
2024/01/18 19:54:49;;;;;;;3.05;1.50;;;4.80;99.90;;;;;;10311168;28;20031;-88
2024/01/18 19:59:49;;;;;;;3.10;1.30;;;6.10;99.90;;;;;;10318870;28;20109;-88
2024/01/18 20:04:50;;;;;;;4.07;1.33;;;6.10;99.90;;;;;;10297989;28;20039;-87
2024/01/18 20:09:51;;;;;;;3.47;1.45;;;5.90;99.90;;;;;;10313822;28;20038;-87
2024/01/18 20:14:51;;;;;;;3.92;1.40;;;4.80;99.90;;;;;;10310997;28;20037;-88
2024/01/18 20:19:52;;;;;;;2.85;1.58;;;4.80;99.90;;;;;;10305916;28;20498;-87
2024/01/18 20:24:53;;;;;;;2.65;1.30;;;5.80;99.90;;;;;;10297373;28;20063;-87
2024/01/18 20:29:54;;;;;;;3.28;1.50;;;4.80;99.90;;;;;;10312077;28;20035;-88
2024/01/18 20:34:54;;;;;;;2.60;1.35;;;5.50;99.90;;;;;;10305748;28;20311;-88
2024/01/18 20:39:55;;;;;;;3.90;1.30;;;4.70;99.90;;;;;;10313101;28;20038;-88
2024/01/18 20:44:56;;;;;;;3.92;1.38;;;4.70;99.90;;;;;;10307178;28;20038;-88
2024/01/18 20:49:58;;;;;;;3.03;1.48;;;4.70;99.90;;;;;;10312532;28;20061;-88
2024/01/18 20:54:59;;;;;;;3.50;1.25;;;4.70;99.90;;;;;;10317379;28;20049;-87
2024/01/18 20:59:59;;;;;;;2.28;1.20;;;4.70;99.90;;;;;;10313807;28;20110;-89
2024/01/18 21:05:00;;;;;;;2.67;1.10;;;6.00;99.90;;;;;;10311723;28;20506;-87
2024/01/18 21:10:01;;;;;;;1.80;1.02;;;4.70;99.90;;;;;;10309100;28;20019;-88
2024/01/18 21:15:08;;;;;;;3.65;1.20;;;4.70;99.90;;;;;;10310017;28;20402;-88
2024/01/18 21:20:10;;;;;;;3.17;1.10;;;4.70;99.90;;;;;;10313982;28;20494;-86
2024/01/18 21:25:11;;;;;;;1.63;1.02;;;4.70;99.90;;;;;;10310520;28;20031;-87
2024/01/18 21:30:12;;;;;;;1.55;1.05;;;4.70;99.90;;;;;;10315322;28;20595;-88
2024/01/18 21:35:12;;;;;;;1.88;1.13;;;4.70;99.90;;;;;;10312709;28;20053;-87
2024/01/18 21:40:13;;;;;;;2.40;1.08;;;4.70;99.90;;;;;;10311135;28;20109;-88
2024/01/18 21:45:14;;;;;;;2.17;0.90;;;5.70;99.90;;;;;;10297617;28;20045;-86
2024/01/18 21:50:15;;;;;;;3.38;1.40;;;4.70;99.90;;;;;;10314508;28;20026;-87
2024/01/18 21:55:15;;;;;;;1.70;0.90;;;4.70;99.90;;;;;;10312708;28;20618;-87
2024/01/18 22:00:16;;;;;;;2.78;1.27;;;4.70;99.90;;;;;;10312251;28;20047;-87
2024/01/18 22:05:17;;;;;;;2.10;0.93;;;4.70;99.90;;;;;;10313975;28;20450;-88
2024/01/18 22:10:18;;;;;;;1.55;0.98;;;4.70;99.90;;;;;;10315580;28;20117;-88
2024/01/18 22:15:18;;;;;;;3.10;1.20;;;4.60;99.90;;;;;;10313406;28;20041;-87
2024/01/18 22:20:19;;;;;;;3.92;1.10;;;4.60;99.90;;;;;;10313690;28;20026;-88
2024/01/18 22:25:20;;;;;;;1.98;1.05;;;4.60;99.90;;;;;;10310090;28;20037;-86
2024/01/18 22:30:20;;;;;;;2.50;0.98;;;4.60;99.90;;;;;;10308660;28;20138;-88
2024/01/18 22:35:21;;;;;;;4.32;1.23;;;4.60;99.90;;;;;;10313536;28;20478;-86
2024/01/18 22:40:26;;;;;;;1.38;0.90;;;4.60;99.90;;;;;;10312626;28;20319;-90
2024/01/18 22:45:26;;;;;;;1.98;0.90;;;4.60;99.90;;;;;;10309745;28;20022;-88
2024/01/18 22:50:27;;;;;;;1.50;1.10;;;4.60;99.90;;;;;;10303849;28;20034;-89
2024/01/18 22:55:29;;;;;;;1.45;1.00;;;4.60;99.90;;;;;;10309130;28;20041;-88
2024/01/18 23:00:29;;;;;;;1.65;0.93;;;4.60;99.90;;;;;;10312886;28;20041;-87
2024/01/18 23:05:30;;;;;;;1.48;0.98;;;4.60;99.90;;;;;;10308924;28;20034;-88
2024/01/18 23:10:31;;;;;;;1.50;0.80;;;4.60;99.90;;;;;;10312664;28;20091;-86
2024/01/18 23:15:31;;;;;;;2.28;1.00;;;5.30;99.90;;;;;;10304454;28;20379;-87
2024/01/18 23:20:32;;;;;;;1.45;0.90;;;4.60;99.90;;;;;;10311260;28;20606;-86
2024/01/18 23:25:32;;;;;;;2.92;1.00;;;4.60;99.90;;;;;;10308756;28;20030;-86
2024/01/18 23:30:33;;;;;;;2.85;1.20;;;4.60;99.90;;;;;;10304948;28;20026;-87
2024/01/18 23:35:34;;;;;;;3.10;1.23;;;4.60;99.90;;;;;;10298336;28;20023;-86
2024/01/18 23:40:34;;;;;;;1.27;0.70;;;4.60;99.90;;;;;;10307530;28;20030;-86
2024/01/18 23:45:37;;;;;;;3.55;1.30;;;4.50;99.90;;;;;;10298076;28;20114;-86
2024/01/18 23:50:38;;;;;;;1.77;1.02;;;4.50;99.90;;;;;;10298920;28;20030;-85
2024/01/18 23:55:38;;;;;;;1.10;0.90;;;4.50;99.90;;;;;;10307038;28;20053;-86
